Map

Track Data

SID SEASON NUMBER BASIN SUBBASIN NAME ISO_TIME NATURE LAT LON WMO_WIND WMO_PRES WMO_AGENCY TRACK_TYPE DIST2LAND LANDFALL IFLAG USA_AGENCY USA_ATCF_ID USA_LAT USA_LON USA_RECORD USA_STATUS USA_WIND USA_PRES USA_SSHS USA_R34_NE USA_R34_SE USA_R34_SW USA_R34_NW USA_R50_NE USA_R50_SE USA_R50_SW USA_R50_NW USA_R64_NE USA_R64_SE USA_R64_SW USA_R64_NW USA_POCI USA_ROCI USA_RMW USA_EYE TOKYO_LAT TOKYO_LON TOKYO_GRADE TOKYO_WIND TOKYO_PRES TOKYO_R50_DIR TOKYO_R50_LONG TOKYO_R50_SHORT TOKYO_R30_DIR TOKYO_R30_LONG TOKYO_R30_SHORT TOKYO_LAND CMA_LAT CMA_LON CMA_CAT CMA_WIND CMA_PRES HKO_LAT HKO_LON HKO_CAT HKO_WIND HKO_PRES NEWDELHI_LAT NEWDELHI_LON NEWDELHI_GRADE NEWDELHI_WIND NEWDELHI_PRES NEWDELHI_CI NEWDELHI_DP NEWDELHI_POCI REUNION_LAT REUNION_LON REUNION_TYPE REUNION_WIND REUNION_PRES REUNION_TNUM REUNION_CI REUNION_RMW REUNION_R34_NE REUNION_R34_SE REUNION_R34_SW REUNION_R34_NW REUNION_R50_NE REUNION_R50_SE REUNION_R50_SW REUNION_R50_NW REUNION_R64_NE REUNION_R64_SE REUNION_R64_SW REUNION_R64_NW BOM_LAT BOM_LON BOM_TYPE BOM_WIND BOM_PRES BOM_TNUM BOM_CI BOM_RMW BOM_R34_NE BOM_R34_SE BOM_R34_SW BOM_R34_NW BOM_R50_NE BOM_R50_SE BOM_R50_SW BOM_R50_NW BOM_R64_NE BOM_R64_SE BOM_R64_SW BOM_R64_NW BOM_ROCI BOM_POCI BOM_EYE BOM_POS_METHOD BOM_PRES_METHOD NADI_LAT NADI_LON NADI_CAT NADI_WIND NADI_PRES WELLINGTON_LAT WELLINGTON_LON WELLINGTON_WIND WELLINGTON_PRES DS824_LAT DS824_LON DS824_STAGE DS824_WIND DS824_PRES TD9636_LAT TD9636_LON TD9636_STAGE TD9636_WIND TD9636_PRES TD9635_LAT TD9635_LON TD9635_WIND TD9635_PRES TD9635_ROCI NEUMANN_LAT NEUMANN_LON NEUMANN_CLASS NEUMANN_WIND NEUMANN_PRES MLC_LAT MLC_LON MLC_CLASS MLC_WIND MLC_PRES USA_GUST BOM_GUST BOM_GUST_PER REUNION_GUST REUNION_GUST_PER USA_SEAHGT USA_SEARAD_NE USA_SEARAD_SE USA_SEARAD_SW USA_SEARAD_NW STORM_SPEED STORM_DIR
1920325N10066 1920 52 NI AS NOT_NAMED 1920-11-20 00:00:00 TS 10.2000 66.3000 main 971 971 _________O____ -1 10.2000 66.3000 TC 30 3 270
1920325N10066 1920 52 NI AS NOT_NAMED 1920-11-20 03:00:00 TS 10.2000 66.1383 main 992 992 _________PO___ -1 10.2000 66.0575 TC 31 10.2000 66.3000 1 4 270
1920325N10066 1920 52 NI AS NOT_NAMED 1920-11-20 06:00:00 TS 10.2000 65.9000 main 1013 1013 _________OP___ -1 10.2000 65.8000 TC 32 10.2000 66.0500 1 5 270
1920325N10066 1920 52 NI AS NOT_NAMED 1920-11-20 09:00:00 TS 10.2000 65.6328 main 1044 1044 _________PP___ -1 10.2000 65.5150 TC 33 10.1999 65.7900 1 5 270
1920325N10066 1920 52 NI AS NOT_NAMED 1920-11-20 12:00:00 TS 10.2000 65.3550 main 1065 1065 _________OP___ -1 10.2000 65.2000 TC 34 10.1999 65.5100 1 6 270
1920325N10066 1920 52 NI AS NOT_NAMED 1920-11-20 15:00:00 TS 10.2000 65.0250 main 1107 1107 _________PO___ -1 10.2000 64.8500 TC 36 10.2000 65.2000 2 7 270
1920325N10066 1920 52 NI AS NOT_NAMED 1920-11-20 18:00:00 TS 10.2001 64.6784 main 1138 1112 _________OP___ -1 10.2000 64.5000 TC 39 10.2002 64.8569 2 7 270
1920325N10066 1920 52 NI AS NOT_NAMED 1920-11-20 21:00:00 TS 10.2001 64.3338 main 1102 1080 _________PP___ -1 10.2000 64.1625 TC 42 10.2002 64.5050 2 6 270
1920325N10066 1920 52 NI AS NOT_NAMED 1920-11-21 00:00:00 TS 10.2001 64.0378 main 1070 1049 _________OP___ -1 10.2000 63.9000 TC 45 10.2002 64.1756 2 5 270
1920325N10066 1920 52 NI AS NOT_NAMED 1920-11-21 03:00:00 TS 10.2000 63.8388 main 1049 1038 _________PO___ -1 10.1999 63.7775 TC 45 10.2000 63.9000 3 3 270
1920325N10066 1920 52 NI AS NOT_NAMED 1920-11-21 06:00:00 TS 10.1999 63.7088 main 1038 1028 _________OP___ -1 10.2000 63.7000 TC 45 10.1998 63.7175 3 3 270
1920325N10066 1920 52 NI AS NOT_NAMED 1920-11-21 09:00:00 TS 10.1999 63.5738 main 1028 1017 _________PP___ -1 10.2000 63.5575 TC 45 10.1998 63.5900 3 3 270
1920325N10066 1920 52 NI AS NOT_NAMED 1920-11-21 12:00:00 TS 10.1999 63.4463 main 1007 996 _________OP___ -1 10.2000 63.4000 TC 45 10.1999 63.4925 3 2 270
1920325N10066 1920 52 NI AS NOT_NAMED 1920-11-21 15:00:00 TS 10.2000 63.3213 main 996 986 _________PO___ -1 10.2000 63.2425 TC 49 10.2000 63.4000 3 3 270
1920325N10066 1920 52 NI AS NOT_NAMED 1920-11-21 18:00:00 TS 10.1980 63.1875 main 986 975 _________OP___ -1 10.2000 63.1000 TC 54 10.1959 63.2750 3 2 269
1920325N10066 1920 52 NI AS NOT_NAMED 1920-11-21 21:00:00 TS 10.1962 63.0750 main 975 965 _________PP___ -1 10.2000 63.0000 TC 59 10.1925 63.1500 3 2 270
1920325N10066 1920 52 NI AS NOT_NAMED 1920-11-22 00:00:00 TS 10.1964 62.9625 main 965 944 _________OP___ -1 10.2000 62.9000 TC 64 10.1928 63.0250 3 2 270
1920325N10066 1920 52 NI AS NOT_NAMED 1920-11-22 03:00:00 TS 10.1963 62.8250 main 944 933 _________PO___ -1 10.1925 62.7500 TC 64 10.2000 62.9000 4 3 273
1920325N10066 1920 52 NI AS NOT_NAMED 1920-11-22 06:00:00 TS 10.2109 62.6875 main 933 923 _________OP___ -1 10.2000 62.6000 TC 64 10.2219 62.7750 4 3 282
1920325N10066 1920 52 NI AS NOT_NAMED 1920-11-22 09:00:00 TS 10.2500 62.5713 main 923 909 _________PP___ -1 10.2500 62.4925 TC 64 10.2500 62.6500 4 2 289
1920325N10066 1920 52 NI AS NOT_NAMED 1920-11-22 12:00:00 TS 10.2891 62.4625 main 909 899 _________OP___ -1 10.3000 62.4000 TC 64 10.2781 62.5250 4 2 284
1920325N10066 1920 52 NI AS NOT_NAMED 1920-11-22 15:00:00 TS 10.3037 62.3537 main 899 878 _________PO___ -1 10.3075 62.3075 TC 64 10.3000 62.4000 4 2 276
1920325N10066 1920 52 NI AS NOT_NAMED 1920-11-22 18:00:00 TS 10.3138 62.2335 main 878 867 _________OP___ -1 10.3000 62.2000 TC 64 10.3275 62.2669 4 3 276
1920325N10066 1920 52 NI AS NOT_NAMED 1920-11-22 21:00:00 TS 10.3300 62.0963 main 867 857 _________PP___ -1 10.3150 62.0575 TC 64 10.3450 62.1350 4 3 271
1920325N10066 1920 52 NI AS NOT_NAMED 1920-11-23 00:00:00 TS 10.3200 61.9553 main 857 836 _________OP___ -1 10.3000 61.9000 TC 64 10.3400 62.0107 4 3 256
1920325N10066 1920 52 NI AS NOT_NAMED 1920-11-23 03:00:00 TS 10.2613 61.8137 main 836 830 _________PO___ -1 10.2225 61.7275 TC 64 10.3000 61.9000 4 3 238
1920325N10066 1920 52 NI AS NOT_NAMED 1920-11-23 06:00:00 TS 10.1494 61.6829 main 833 823 _________OP___ -1 10.1000 61.6000 TC 64 10.1987 61.7658 4 3 219
1920325N10066 1920 52 NI AS NOT_NAMED 1920-11-23 09:00:00 TS 10.0037 61.5999 main 827 827 _________PP___ -1 9.94247 61.5475 TC 64 10.0649 61.6523 4 3 197
1920325N10066 1920 52 NI AS NOT_NAMED 1920-11-23 12:00:00 TS 9.86184 61.5938 main 831 831 _________OP___ -1 9.80000 61.6000 TC 64 9.92368 61.5877 4 3 161
1920325N10066 1920 52 NI AS NOT_NAMED 1920-11-23 15:00:00 TS 9.76751 61.6850 main 846 846 _________PO___ -1 9.73502 61.7700 TC 64 9.80000 61.6000 4 3 119
1920325N10066 1920 52 NI AS NOT_NAMED 1920-11-23 18:00:00 TS 9.71427 61.8666 main 870 870 _________OP___ -1 9.70000 62.0000 TC 64 9.72855 61.7332 4 4 105
1920325N10066 1920 52 NI AS NOT_NAMED 1920-11-23 21:00:00 TS 9.66384 62.0738 main 890 890 _________PP___ -1 9.65000 62.2075 TC 64 9.67767 61.9401 4 4 103
1920325N10066 1920 52 NI AS NOT_NAMED 1920-11-24 00:00:00 TS 9.61897 62.2885 main 915 915 _________OP___ -1 9.60000 62.4000 TC 64 9.63794 62.1769 4 4 102
1920325N10066 1920 52 NI AS NOT_NAMED 1920-11-24 03:00:00 TS 9.57500 62.4825 main 935 935 _________PO___ -1 9.54999 62.5650 TC 64 9.60000 62.4000 4 3 106
1920325N10066 1920 52 NI AS NOT_NAMED 1920-11-24 06:00:00 TS 9.52497 62.6253 main 950 950 _________OP___ -1 9.50000 62.7000 TC 64 9.54995 62.5506 4 3 111
1920325N10066 1920 52 NI AS NOT_NAMED 1920-11-24 09:00:00 TS 9.47496 62.7437 main 960 960 _________PP___ -1 9.44999 62.8075 TC 64 9.49994 62.6800 4 2 115
1920325N10066 1920 52 NI AS NOT_NAMED 1920-11-24 12:00:00 TS 9.42498 62.8472 main 974 974 _________OP___ -1 9.40000 62.9000 TC 64 9.44996 62.7944 4 2 117
1920325N10066 1920 52 NI AS NOT_NAMED 1920-11-24 15:00:00 TS 9.37500 62.9500 main 995 984 _________PO___ -1 9.35000 63.0000 TC 56 9.40000 62.9000 4 2 113
1920325N10066 1920 52 NI AS NOT_NAMED 1920-11-24 18:00:00 TS 9.33313 63.0658 main 1009 1009 _________OP___ -1 9.30000 63.1000 TC 49 9.36625 63.0316 4 2 109
1920325N10066 1920 52 NI AS NOT_NAMED 1920-11-24 21:00:00 TS 9.29751 63.1838 main 1019 1019 _________PP___ -1 9.26501 63.2150 TC 41 9.33001 63.1525 4 2 114
1920325N10066 1920 52 NI AS NOT_NAMED 1920-11-25 00:00:00 TS 9.23938 63.2736 main 1034 1034 _________OP___ -1 9.20000 63.3000 TC 34 9.27875 63.2472 4 2 142
1920325N10066 1920 52 NI AS NOT_NAMED 1920-11-25 03:00:00 TS 9.13249 63.3150 main 1038 1038 _________PO___ -1 9.06499 63.3300 TC 36 9.20000 63.3000 2 3 171
1920325N10066 1920 52 NI AS NOT_NAMED 1920-11-25 06:00:00 TS 8.97717 63.3067 main 1042 1042 _________OP___ -1 8.90000 63.3000 TC 39 9.05433 63.3134 2 3 190
1920325N10066 1920 52 NI AS NOT_NAMED 1920-11-25 09:00:00 TS 8.80622 63.2524 main 1051 1041 _________PP___ -1 8.72750 63.2225 TC 42 8.88493 63.2824 2 4 205
1920325N10066 1920 52 NI AS NOT_NAMED 1920-11-25 12:00:00 TS 8.66154 63.1551 main 1046 1031 _________OP___ -1 8.60000 63.1000 TC 45 8.72307 63.2102 2 3 225
1920325N10066 1920 52 NI AS NOT_NAMED 1920-11-25 15:00:00 TS 8.58875 63.0325 main 1031 1022 _________PO___ -1 8.57749 62.9650 TC 45 8.60000 63.1000 3 3 252
1920325N10066 1920 52 NI AS NOT_NAMED 1920-11-25 18:00:00 TS 8.57642 62.8825 main 1022 1002 _________OP___ -1 8.60000 62.8000 TC 45 8.55283 62.9650 3 3 267
1920325N10066 1920 52 NI AS NOT_NAMED 1920-11-25 21:00:00 TS 8.57376 62.7013 main 1002 982 _________PP___ -1 8.60000 62.6075 TC 45 8.54752 62.7950 3 4 271
1920325N10066 1920 52 NI AS NOT_NAMED 1920-11-26 00:00:00 TS 8.58422 62.5013 main 982 963 _________OP___ -1 8.60000 62.4000 TC 45 8.56845 62.6025 3 4 273
1920325N10066 1920 52 NI AS NOT_NAMED 1920-11-26 03:00:00 TS 8.59624 62.3000 main 963 944 _________PO___ -1 8.59249 62.2000 TC 41 8.60000 62.4000 3 4 273
1920325N10066 1920 52 NI AS NOT_NAMED 1920-11-26 06:00:00 TS 8.60479 62.1137 main 944 924 _________OP___ -1 8.60000 62.0000 TC 37 8.60959 62.2275 3 4 276
1920325N10066 1920 52 NI AS NOT_NAMED 1920-11-26 09:00:00 TS 8.63489 61.9337 main 924 900 _________PP___ -1 8.64245 61.8225 TC 33 8.62734 62.0449 3 4 281
1920325N10066 1920 52 NI AS NOT_NAMED 1920-11-26 12:00:00 TS 8.67821 61.7200 main 900 881 _________OP___ -1 8.70000 61.6000 TC 30 8.65643 61.8399 3 5 280
1920325N10066 1920 52 NI AS NOT_NAMED 1920-11-26 15:00:00 TS 8.72127 61.4325 main 871 837 _________PO___ -1 8.74254 61.2650 TC 30 8.70000 61.6000 1 6 279
1920325N10066 1920 52 NI AS NOT_NAMED 1920-11-26 18:00:00 TS 8.77833 61.1014 main 837 803 _________OP___ -1 8.80000 60.9000 TC 30 8.75665 61.3028 1 7 282
1920325N10066 1920 52 NI AS NOT_NAMED 1920-11-26 21:00:00 TS 8.86004 60.7825 main 803 775 _________PP___ -1 8.89246 60.5925 TC 30 8.82763 60.9725 1 7 286
1920325N10066 1920 52 NI AS NOT_NAMED 1920-11-27 00:00:00 TS 8.95489 60.4655 main 769 742 _________OP___ -1 9.00000 60.3000 TC 30 8.90977 60.6309 1 7 287
1920325N10066 1920 52 NI AS NOT_NAMED 1920-11-27 03:00:00 TS 9.05000 60.1462 main 732 708 _________PO___ -1 9.09999 59.9925 TC 30 9.00000 60.3000 1 6 287
1920325N10066 1920 52 NI AS NOT_NAMED 1920-11-27 06:00:00 TS 9.14226 59.8593 main 708 674 _________OP___ -1 9.20000 59.7000 TC 30 9.08452 60.0186 1 6 289
1920325N10066 1920 52 NI AS NOT_NAMED 1920-11-27 09:00:00 TS 9.23485 59.6036 main 674 650 _________PP___ -1 9.29243 59.4574 TC 30 9.17727 59.7498 1 6 291
1920325N10066 1920 52 NI AS NOT_NAMED 1920-11-27 12:00:00 TS 9.34070 59.3406 main 641 601 _________OP___ -1 9.40000 59.2000 TC 30 9.28140 59.4811 1 6 293
1920325N10066 1920 52 NI AS NOT_NAMED 1920-11-27 15:00:00 TS 9.47126 59.0288 main 601 568 _________PO___ -1 9.54253 58.8575 TC 30 9.40000 59.2000 1 7 294
1920325N10066 1920 52 NI AS NOT_NAMED 1920-11-27 18:00:00 TS 9.60566 58.7269 main 568 535 _________OP___ -1 9.70000 58.5000 TC 30 9.53490 58.8971 1 7 295
1920325N10066 1920 52 NI AS NOT_NAMED 1920-11-27 21:00:00 TS 9.75072 58.4192 main 528 495 _________PP___ -1 9.85251 58.1850 TC 30 9.68286 58.5753 1 7 296
1920325N10066 1920 52 NI AS NOT_NAMED 1920-11-28 00:00:00 TS 9.89292 58.1273 main 495 471 _________OP___ -1 10.0000 57.9000 TC 30 9.83938 58.2409 1 6 296
1920325N10066 1920 52 NI AS NOT_NAMED 1920-11-28 03:00:00 NR 10.0000 57.9000 main 471 __________O___ -1 TC 10.0000 57.9000 1 5 296

About IBTrACS Database

This database is a web-friendly format of International Best Track Archive for Climate Stewardship (IBTrACS), a global best track data archive curated by NOAA dating back to 1842.

Updated: 2021-10-21